Time;durP1;ratioP1;P1;durP2;ratioP2;P2;SDS_P1;SDS_P2;PMS_P1;PMS_P2;Temp;Humidity;BMP_temperature;BMP_pressure;BME280_temperature;BME280_humidity;BME280_pressure;Samples;Min_cycle;Max_cycle;Signal;HPM_P1;HPM_P2
2022/10/27 00:00:04;;;;;;;;;;;;;;;19.27;63.98;97657.66;4166754;28;5819;-73
2022/10/27 00:02:07;;;;;;;;;;;;;;;19.20;64.22;97655.06;4166954;28;5738;-73
2022/10/27 00:04:11;;;;;;;;;;;;;;;19.15;64.81;97652.25;4167319;28;5810;-73
2022/10/27 00:06:13;;;;;;;;;;;;;;;19.14;64.70;97650.63;4170138;28;5738;-74
2022/10/27 00:08:18;;;;;;;;;;;;;;;19.15;64.65;97654.13;4161830;28;5726;-74
2022/10/27 00:10:21;;;;;;;;;;;;;;;19.11;64.86;97656.44;4154048;28;5762;-74
2022/10/27 00:12:24;;;;;;;;;;;;;;;19.06;64.97;97656.31;4169964;28;5845;-73
2022/10/27 00:14:27;;;;;;;;;;;;;;;19.03;65.03;97662.13;4170169;28;5700;-74
2022/10/27 00:16:30;;;;;;;;;;;;;;;19.04;65.38;97666.44;4170088;28;5734;-73
2022/10/27 00:18:33;;;;;;;;;;;;;;;19.01;65.46;97660.69;4170068;28;6419;-73
2022/10/27 00:20:37;;;;;;;;;;;;;;;18.97;65.57;97665.69;4169617;28;6039;-73
2022/10/27 00:22:40;;;;;;;;;;;;;;;18.94;65.82;97657.28;4169674;28;5837;-73
2022/10/27 00:24:43;;;;;;;;;;;;;;;18.93;65.86;97667.19;4169578;28;5741;-73
2022/10/27 00:26:46;;;;;;;;;;;;;;;18.96;65.90;97668.59;4169136;28;5828;-73
2022/10/27 00:28:49;;;;;;;;;;;;;;;18.96;65.73;97664.06;4169367;28;5738;-73
2022/10/27 00:30:57;;;;;;;;;;;;;;;19.00;65.74;97665.22;4169645;28;5730;-73
2022/10/27 00:33:00;;;;;;;;;;;;;;;19.05;65.64;97661.88;4169191;28;5725;-73
2022/10/27 00:35:03;;;;;;;;;;;;;;;19.05;65.52;97662.72;4169786;28;6023;-73
2022/10/27 00:37:07;;;;;;;;;;;;;;;19.05;65.67;97661.88;4169431;28;7719;-73
2022/10/27 00:39:10;;;;;;;;;;;;;;;19.07;65.41;97665.16;4169609;28;6602;-73
2022/10/27 00:41:24;;;;;;;;;;;;;;;19.12;65.36;97667.97;4169069;28;5790;-73
2022/10/27 00:43:30;;;;;;;;;;;;;;;19.14;65.56;97668.53;4166988;28;6424;-73
2022/10/27 00:45:33;;;;;;;;;;;;;;;19.16;65.60;97672.66;4165420;28;5814;-73
2022/10/27 00:47:37;;;;;;;;;;;;;;;19.16;65.53;97669.97;4164164;28;5836;-73
2022/10/27 00:49:42;;;;;;;;;;;;;;;19.17;65.58;97678.84;4168340;28;5854;-73
2022/10/27 00:51:50;;;;;;;;;;;;;;;19.16;65.64;97674.53;4169935;28;5757;-73
2022/10/27 00:53:55;;;;;;;;;;;;;;;19.17;65.38;97685.00;4165550;28;5745;-73
2022/10/27 00:55:58;;;;;;;;;;;;;;;19.15;65.61;97673.72;4166483;28;5742;-73
2022/10/27 00:58:05;;;;;;;;;;;;;;;19.18;65.41;97680.47;4172488;28;5745;-72
2022/10/27 01:00:08;;;;;;;;;;;;;;;19.17;65.55;97676.97;4169430;28;5741;-73
2022/10/27 01:02:11;;;;;;;;;;;;;;;19.17;65.28;97676.16;4169033;28;5809;-73
2022/10/27 01:04:17;;;;;;;;;;;;;;;19.17;65.69;97673.47;4169092;28;5864;-73
2022/10/27 01:06:20;;;;;;;;;;;;;;;19.15;65.70;97673.72;4160658;28;5728;-73
2022/10/27 01:08:23;;;;;;;;;;;;;;;19.12;65.57;97682.19;4177978;28;5783;-73
2022/10/27 01:10:27;;;;;;;;;;;;;;;19.12;65.50;97684.84;4169147;28;5726;-72
2022/10/27 01:12:30;;;;;;;;;;;;;;;19.13;65.39;97683.00;4168369;28;5812;-73
2022/10/27 01:14:33;;;;;;;;;;;;;;;19.14;65.57;97688.16;4170216;28;5840;-73
2022/10/27 01:16:46;;;;;;;;;;;;;;;19.14;65.59;97695.34;4168660;28;5363;-73
2022/10/27 01:19:03;;;;;;;;;;;;;;;19.14;65.41;97688.16;4168843;28;5901;-72
2022/10/27 01:21:41;;;;;;;;;;;;;;;19.13;65.42;97685.69;4170320;28;5849;-73
2022/10/27 01:24:10;;;;;;;;;;;;;;;19.12;65.60;97690.22;4178049;28;5737;-73
2022/10/27 01:26:42;;;;;;;;;;;;;;;19.12;65.39;97686.72;4169185;28;5752;-73
2022/10/27 01:29:31;;;;;;;;;;;;;;;19.10;65.57;97692.31;4164758;28;5851;-73
2022/10/27 01:31:42;;;;;;;;;;;;;;;19.07;65.40;97692.78;4170987;28;5081;-72
2022/10/27 01:33:51;;;;;;;;;;;;;;;19.05;65.32;97692.19;4181339;28;5737;-73
2022/10/27 01:35:59;;;;;;;;;;;;;;;19.06;65.63;97701.03;4152720;28;5869;-74
2022/10/27 01:38:10;;;;;;;;;;;;;;;19.05;65.29;97705.59;4173265;28;5791;-73
2022/10/27 01:40:20;;;;;;;;;;;;;;;19.06;65.30;97701.03;4168872;28;5821;-74
2022/10/27 01:42:29;;;;;;;;;;;;;;;19.05;65.35;97699.41;4161568;28;6436;-73
2022/10/27 01:44:36;;;;;;;;;;;;;;;19.04;65.32;97701.28;4168785;28;5747;-73
2022/10/27 01:46:42;;;;;;;;;;;;;;;19.05;64.94;97699.41;4168740;28;5757;-73
2022/10/27 01:48:45;;;;;;;;;;;;;;;19.04;65.19;97695.09;4168892;28;5844;-73
2022/10/27 01:50:48;;;;;;;;;;;;;;;19.04;65.17;97689.72;4167620;28;5827;-73
2022/10/27 01:53:03;;;;;;;;;;;;;;;19.02;65.25;97684.56;4169441;28;5907;-73
2022/10/27 01:55:10;;;;;;;;;;;;;;;19.01;64.86;97688.28;4175009;28;5749;-73
2022/10/27 01:57:27;;;;;;;;;;;;;;;19.00;64.96;97686.66;4179816;28;6793;-73
2022/10/27 01:59:47;;;;;;;;;;;;;;;18.98;65.14;97699.47;4173926;28;5787;-73
2022/10/27 02:02:05;;;;;;;;;;;;;;;18.99;64.85;97694.94;4173120;28;5884;-73
2022/10/27 02:04:20;;;;;;;;;;;;;;;18.99;64.76;97694.94;4169676;28;5805;-73
2022/10/27 02:06:31;;;;;;;;;;;;;;;18.98;64.98;97704.84;4166536;28;5905;-73
2022/10/27 02:08:41;;;;;;;;;;;;;;;18.98;64.89;97698.66;4169626;28;6823;-73
2022/10/27 02:10:53;;;;;;;;;;;;;;;18.99;64.62;97705.66;4167168;28;5741;-73
2022/10/27 02:12:58;;;;;;;;;;;;;;;18.97;64.80;97708.56;4168978;28;5804;-73
2022/10/27 02:15:06;;;;;;;;;;;;;;;18.98;64.85;97699.47;4172227;28;5793;-73
2022/10/27 02:17:13;;;;;;;;;;;;;;;18.98;64.64;97698.66;4168329;28;6519;-73
2022/10/27 02:19:20;;;;;;;;;;;;;;;18.98;64.66;97718.22;4168153;28;5817;-73
2022/10/27 02:21:25;;;;;;;;;;;;;;;18.96;64.74;97701.56;4168094;28;5805;-73
2022/10/27 02:23:29;;;;;;;;;;;;;;;18.96;64.89;97704.25;4167947;28;5808;-73
2022/10/27 02:25:39;;;;;;;;;;;;;;;18.97;64.44;97697.84;4168562;28;5737;-73
2022/10/27 02:27:48;;;;;;;;;;;;;;;18.95;64.51;97694.56;4167563;28;5742;-72
2022/10/27 02:29:57;;;;;;;;;;;;;;;18.93;64.64;97695.84;4170574;28;5093;-72
2022/10/27 02:32:03;;;;;;;;;;;;;;;18.92;64.72;97695.03;4167973;28;5853;-73
2022/10/27 02:34:08;;;;;;;;;;;;;;;18.92;64.79;97695.03;4179429;28;5733;-73
2022/10/27 02:36:11;;;;;;;;;;;;;;;18.92;64.87;97694.22;4164193;28;5917;-72
2022/10/27 02:38:14;;;;;;;;;;;;;;;18.92;64.77;97699.56;4173587;28;5727;-72
2022/10/27 02:40:16;;;;;;;;;;;;;;;18.91;64.64;97701.41;4168594;28;5827;-73
2022/10/27 02:42:19;;;;;;;;;;;;;;;18.91;64.82;97704.06;4151668;28;5774;-73
2022/10/27 02:44:22;;;;;;;;;;;;;;;18.92;64.51;97705.75;4161740;28;5923;-73
2022/10/27 02:46:25;;;;;;;;;;;;;;;18.91;64.43;97704.06;4161342;28;5893;-73
2022/10/27 02:48:28;;;;;;;;;;;;;;;18.92;64.59;97702.25;4156385;28;5963;-73
2022/10/27 02:50:32;;;;;;;;;;;;;;;18.90;64.87;97699.75;4154815;28;5832;-73
2022/10/27 02:52:34;;;;;;;;;;;;;;;18.89;64.63;97700.81;4151049;28;6616;-73
2022/10/27 02:54:37;;;;;;;;;;;;;;;18.90;64.56;97705.13;4158524;28;5865;-73
2022/10/27 02:56:40;;;;;;;;;;;;;;;18.90;64.56;97711.28;4163483;28;5741;-73
2022/10/27 02:58:43;;;;;;;;;;;;;;;18.90;64.39;97707.81;4168290;28;5943;-73
2022/10/27 03:00:45;;;;;;;;;;;;;;;18.89;64.34;97703.50;4156105;28;5908;-73
2022/10/27 03:02:48;;;;;;;;;;;;;;;18.88;64.46;97707.22;4167658;28;5777;-73
2022/10/27 03:04:52;;;;;;;;;;;;;;;18.86;64.45;97706.63;4166107;28;5835;-73
2022/10/27 03:06:56;;;;;;;;;;;;;;;18.86;64.32;97711.97;4151985;28;5747;-72
2022/10/27 03:08:59;;;;;;;;;;;;;;;18.85;64.27;97710.34;4158418;28;5135;-73
2022/10/27 03:11:02;;;;;;;;;;;;;;;18.84;64.45;97712.22;4160235;28;5777;-72
2022/10/27 03:13:04;;;;;;;;;;;;;;;18.84;64.61;97711.38;4161473;28;5816;-72
2022/10/27 03:15:08;;;;;;;;;;;;;;;18.82;64.23;97716.16;4166088;28;5741;-73
2022/10/27 03:17:11;;;;;;;;;;;;;;;18.82;64.48;97708.94;4157122;28;5771;-74
2022/10/27 03:19:14;;;;;;;;;;;;;;;18.81;64.09;97711.84;4158441;28;6544;-73
2022/10/27 03:21:16;;;;;;;;;;;;;;;18.76;64.33;97707.13;4150668;28;5833;-73
2022/10/27 03:23:21;;;;;;;;;;;;;;;18.71;64.30;97703.50;4165336;28;5813;-72
2022/10/27 03:25:23;;;;;;;;;;;;;;;18.69;64.22;97705.56;4160438;28;5741;-72
2022/10/27 03:27:26;;;;;;;;;;;;;;;18.69;64.42;97701.06;4156275;28;5874;-72
2022/10/27 03:29:29;;;;;;;;;;;;;;;18.71;64.22;97701.66;4156393;28;5738;-72
2022/10/27 03:31:32;;;;;;;;;;;;;;;18.73;64.30;97698.75;4161450;28;5799;-71
2022/10/27 03:33:35;;;;;;;;;;;;;;;18.74;64.25;97692.34;4162092;28;5903;-72
2022/10/27 03:35:38;;;;;;;;;;;;;;;18.72;63.96;97699.78;4159841;28;5738;-72
2022/10/27 03:37:41;;;;;;;;;;;;;;;18.72;64.18;97699.78;4159917;28;6532;-73
2022/10/27 03:39:45;;;;;;;;;;;;;;;18.72;64.02;97695.25;4155501;28;6667;-72
2022/10/27 03:41:50;;;;;;;;;;;;;;;18.73;64.19;97696.06;4165679;28;5820;-73
2022/10/27 03:43:52;;;;;;;;;;;;;;;18.72;64.01;97699.78;4164932;28;6079;-72
2022/10/27 03:45:55;;;;;;;;;;;;;;;18.73;63.90;97701.41;4159161;28;5743;-73
2022/10/27 03:48:03;;;;;;;;;;;;;;;18.72;64.04;97705.97;4159303;28;5862;-72
2022/10/27 03:50:07;;;;;;;;;;;;;;;18.73;64.11;97699.56;4164828;28;5845;-72
2022/10/27 03:52:10;;;;;;;;;;;;;;;18.74;64.10;97708.41;4155109;28;5762;-73
2022/10/27 03:54:12;;;;;;;;;;;;;;;18.75;63.83;97704.69;4166078;28;5814;-72
2022/10/27 03:56:17;;;;;;;;;;;;;;;18.76;63.94;97711.69;4167322;28;5881;-73
2022/10/27 03:58:19;;;;;;;;;;;;;;;18.74;63.70;97709.22;4161292;28;5842;-74
2022/10/27 04:00:23;;;;;;;;;;;;;;;18.74;64.01;97713.75;4157720;28;5821;-73
2022/10/27 04:02:25;;;;;;;;;;;;;;;18.71;63.62;97711.53;4161026;28;5869;-72
2022/10/27 04:04:28;;;;;;;;;;;;;;;18.72;63.88;97714.00;4160992;28;5730;-73
2022/10/27 04:06:31;;;;;;;;;;;;;;;18.71;63.85;97709.69;4155375;28;5908;-73
2022/10/27 04:08:34;;;;;;;;;;;;;;;18.71;63.91;97715.03;4160220;28;6525;-72
2022/10/27 04:10:37;;;;;;;;;;;;;;;18.71;63.67;97720.41;4168315;28;6449;-73
2022/10/27 04:13:01;;;;;;;;;;;;;;;18.70;63.75;97712.59;4158813;28;5734;-73
2022/10/27 04:15:21;;;;;;;;;;;;;;;18.71;63.53;97714.22;4168927;28;5737;-72
2022/10/27 04:17:24;;;;;;;;;;;;;;;18.69;63.77;97708.25;4162810;28;5734;-73
2022/10/27 04:19:26;;;;;;;;;;;;;;;18.68;63.69;97709.28;4167180;28;7165;-72
2022/10/27 04:21:29;;;;;;;;;;;;;;;18.66;63.57;97716.72;4169066;28;5829;-73
2022/10/27 04:23:32;;;;;;;;;;;;;;;18.65;63.60;97712.41;4157973;28;5857;-73
2022/10/27 04:25:35;;;;;;;;;;;;;;;18.63;63.23;97707.25;4158474;28;5976;-72
2022/10/27 04:27:38;;;;;;;;;;;;;;;18.62;63.28;97706.44;4162543;28;5734;-73
2022/10/27 04:29:42;;;;;;;;;;;;;;;18.61;63.42;97715.50;4166092;28;5787;-72
2022/10/27 04:31:45;;;;;;;;;;;;;;;18.62;63.58;97717.16;4154093;28;5944;-72
2022/10/27 04:33:48;;;;;;;;;;;;;;;18.62;63.23;97710.97;4172256;28;5787;-72
2022/10/27 04:35:50;;;;;;;;;;;;;;;18.61;63.10;97720.88;4155058;28;5747;-73
2022/10/27 04:37:55;;;;;;;;;;;;;;;18.61;63.33;97728.09;4174664;28;5705;-73
2022/10/27 04:39:58;;;;;;;;;;;;;;;18.59;63.01;97716.78;4163228;28;5722;-73
2022/10/27 04:42:00;;;;;;;;;;;;;;;18.59;63.00;97717.59;4159309;28;5729;-73
2022/10/27 04:44:03;;;;;;;;;;;;;;;18.57;63.06;97719.69;4164064;28;5755;-73
2022/10/27 04:46:07;;;;;;;;;;;;;;;18.56;62.79;97727.91;4165126;28;5956;-73
2022/10/27 04:48:10;;;;;;;;;;;;;;;18.54;62.73;97738.03;4166311;28;5729;-73
2022/10/27 04:50:13;;;;;;;;;;;;;;;18.54;63.04;97732.69;4161426;28;5765;-73
2022/10/27 04:52:15;;;;;;;;;;;;;;;18.54;62.71;97736.16;4163430;28;5762;-73
2022/10/27 04:54:18;;;;;;;;;;;;;;;18.54;62.53;97735.34;4165300;28;5852;-73
2022/10/27 04:56:21;;;;;;;;;;;;;;;18.53;62.54;97729.19;4167486;28;5812;-73
2022/10/27 04:58:24;;;;;;;;;;;;;;;18.51;62.82;97738.47;4161800;28;5913;-73
2022/10/27 05:00:27;;;;;;;;;;;;;;;18.52;62.53;97732.91;4166276;28;5743;-73
2022/10/27 05:02:31;;;;;;;;;;;;;;;18.51;62.62;97720.56;4159223;28;5848;-73
2022/10/27 05:04:40;;;;;;;;;;;;;;;18.52;62.23;97732.91;4168589;28;6035;-73
2022/10/27 05:06:43;;;;;;;;;;;;;;;18.53;62.58;97739.06;4162631;28;5767;-73
2022/10/27 05:08:45;;;;;;;;;;;;;;;18.51;62.22;97738.47;4164852;28;5734;-73
2022/10/27 05:10:49;;;;;;;;;;;;;;;18.50;62.38;97736.84;4158541;28;6603;-73
2022/10/27 05:12:51;;;;;;;;;;;;;;;18.48;62.25;97745.09;4162966;28;5782;-72
2022/10/27 05:14:55;;;;;;;;;;;;;;;18.47;62.17;97734.63;4165011;28;6454;-73
2022/10/27 05:16:57;;;;;;;;;;;;;;;18.45;62.46;97726.78;4163593;28;5730;-73
2022/10/27 05:19:02;;;;;;;;;;;;;;;18.45;62.45;97731.31;4168279;28;5720;-72
2022/10/27 05:21:06;;;;;;;;;;;;;;;18.47;62.06;97731.94;4169313;28;5840;-73
2022/10/27 05:23:10;;;;;;;;;;;;;;;18.47;62.23;97732.75;4168229;28;5749;-73
2022/10/27 05:25:13;;;;;;;;;;;;;;;18.45;62.04;97734.81;4158963;28;5779;-72
2022/10/27 05:27:16;;;;;;;;;;;;;;;18.44;62.07;97741.22;4163596;28;5835;-72
2022/10/27 05:29:19;;;;;;;;;;;;;;;18.44;62.06;97751.91;4170138;28;5712;-72
2022/10/27 05:31:21;;;;;;;;;;;;;;;18.42;62.01;97742.47;4160879;28;5750;-73
2022/10/27 05:33:25;;;;;;;;;;;;;;;18.42;61.95;97743.28;4161370;28;5734;-73
2022/10/27 05:35:29;;;;;;;;;;;;;;;18.42;61.91;97737.94;4169286;28;5818;-73
2022/10/27 05:37:32;;;;;;;;;;;;;;;18.40;61.92;97749.91;4161284;28;5900;-73
2022/10/27 05:39:35;;;;;;;;;;;;;;;18.40;61.83;97731.16;4165480;28;5759;-73
2022/10/27 05:41:37;;;;;;;;;;;;;;;18.40;61.73;97734.66;4158008;28;5849;-73
2022/10/27 05:43:41;;;;;;;;;;;;;;;18.42;61.65;97737.13;4163901;28;5085;-73
2022/10/27 05:45:44;;;;;;;;;;;;;;;18.41;61.65;97733.63;4152352;28;5893;-73
2022/10/27 05:47:47;;;;;;;;;;;;;;;18.40;61.94;97734.66;4161627;28;5746;-72
2022/10/27 05:49:50;;;;;;;;;;;;;;;18.40;61.83;97740.03;4166602;28;5803;-73
2022/10/27 05:51:54;;;;;;;;;;;;;;;18.38;61.65;97741.28;4157797;28;5774;-65
2022/10/27 05:53:56;;;;;;;;;;;;;;;18.38;61.59;97747.47;4161018;28;5824;-66
2022/10/27 05:55:59;;;;;;;;;;;;;;;18.36;61.78;97759.44;4164272;28;5865;-64
2022/10/27 05:58:05;;;;;;;;;;;;;;;18.34;61.71;97749.72;4157577;28;5179;-64
2022/10/27 06:00:09;;;;;;;;;;;;;;;18.36;61.71;97754.06;4166759;28;5745;-65
2022/10/27 06:02:11;;;;;;;;;;;;;;;18.36;61.52;97754.88;4162743;28;5949;-65
2022/10/27 06:04:14;;;;;;;;;;;;;;;18.36;61.76;97752.22;4153138;28;5875;-65
2022/10/27 06:06:17;;;;;;;;;;;;;;;18.33;61.84;97750.78;4165327;28;5715;-65
2022/10/27 06:08:22;;;;;;;;;;;;;;;18.33;61.60;97757.97;4158063;28;5866;-65
2022/10/27 06:10:28;;;;;;;;;;;;;;;18.32;61.65;97756.34;4175289;28;5077;-65
2022/10/27 06:12:30;;;;;;;;;;;;;;;18.31;61.64;97752.84;4161368;28;5737;-65
2022/10/27 06:14:33;;;;;;;;;;;;;;;18.32;61.43;97759.03;4165845;28;5955;-65
2022/10/27 06:16:36;;;;;;;;;;;;;;;18.32;61.49;97748.31;4161352;28;5214;-65
2022/10/27 06:18:39;;;;;;;;;;;;;;;18.31;61.16;97752.03;4168915;28;5891;-65
2022/10/27 06:20:43;;;;;;;;;;;;;;;18.30;61.27;97759.25;4165141;28;6571;-66
2022/10/27 06:22:46;;;;;;;;;;;;;;;18.30;61.27;97764.59;4179064;28;5720;-65
2022/10/27 06:24:50;;;;;;;;;;;;;;;18.30;61.42;97761.09;4171892;28;5801;-65
2022/10/27 06:26:53;;;;;;;;;;;;;;;18.30;61.49;97761.94;4160181;28;5842;-65
2022/10/27 06:28:58;;;;;;;;;;;;;;;18.30;61.39;97767.28;4152062;28;5944;-65
2022/10/27 06:31:01;;;;;;;;;;;;;;;18.32;61.34;97753.66;4166117;28;6443;-65
2022/10/27 06:33:04;;;;;;;;;;;;;;;18.30;61.32;97755.75;4162645;28;5767;-65
2022/10/27 06:35:08;;;;;;;;;;;;;;;18.30;61.37;97756.56;4154476;28;5762;-66
2022/10/27 06:37:11;;;;;;;;;;;;;;;18.31;61.18;97757.38;4167672;28;5741;-66
2022/10/27 06:39:14;;;;;;;;;;;;;;;18.30;61.38;97766.47;4157312;28;5203;-65
2022/10/27 06:41:18;;;;;;;;;;;;;;;18.30;61.15;97777.16;4167121;28;5808;-66
2022/10/27 06:43:21;;;;;;;;;;;;;;;18.28;61.40;97769.38;4170002;28;5704;-66
2022/10/27 06:45:24;;;;;;;;;;;;;;;18.30;61.40;97777.16;4154721;28;5906;-64
2022/10/27 06:47:27;;;;;;;;;;;;;;;18.28;61.19;97779.25;4151440;28;5746;-65
2022/10/27 06:49:30;;;;;;;;;;;;;;;18.28;61.37;97776.56;4153397;28;5925;-65
2022/10/27 06:51:32;;;;;;;;;;;;;;;18.28;61.15;97784.59;4166995;28;5751;-65
2022/10/27 06:53:35;;;;;;;;;;;;;;;18.28;61.19;97781.94;4165595;28;5968;-65
2022/10/27 06:55:38;;;;;;;;;;;;;;;18.27;61.10;97775.75;4164355;28;5731;-64
2022/10/27 06:57:43;;;;;;;;;;;;;;;18.28;61.06;97796.13;4167810;28;5741;-64
2022/10/27 06:59:46;;;;;;;;;;;;;;;18.28;61.04;97804.16;4166314;28;5797;-66
2022/10/27 07:01:49;;;;;;;;;;;;;;;18.28;60.85;97806.00;4167818;28;5730;-65
2022/10/27 07:03:52;;;;;;;;;;;;;;;18.29;61.08;97813.00;4155475;28;5762;-65
2022/10/27 07:05:55;;;;;;;;;;;;;;;18.30;60.91;97804.75;4166899;28;5755;-65
2022/10/27 07:07:58;;;;;;;;;;;;;;;18.32;60.75;97805.34;4163519;28;5762;-65
2022/10/27 07:10:01;;;;;;;;;;;;;;;18.34;60.66;97803.28;4162873;28;5794;-65
2022/10/27 07:12:05;;;;;;;;;;;;;;;18.34;60.64;97805.94;4151103;28;5754;-65
2022/10/27 07:14:09;;;;;;;;;;;;;;;18.34;60.55;97810.47;4160307;28;5931;-65
2022/10/27 07:16:12;;;;;;;;;;;;;;;18.33;60.65;97809.66;4162617;28;5776;-65
2022/10/27 07:18:15;;;;;;;;;;;;;;;18.35;60.82;97822.84;4165474;28;5828;-65
2022/10/27 07:20:18;;;;;;;;;;;;;;;18.36;60.64;97829.03;4160110;28;5756;-65
2022/10/27 07:22:20;;;;;;;;;;;;;;;18.37;60.55;97831.47;4162186;28;5733;-65
2022/10/27 07:24:23;;;;;;;;;;;;;;;18.38;60.74;97833.13;4159035;28;5745;-64
2022/10/27 07:26:26;;;;;;;;;;;;;;;18.38;60.33;97827.78;4162167;28;5825;-65
2022/10/27 07:28:29;;;;;;;;;;;;;;;18.42;60.33;97826.28;4167437;28;5734;-64
2022/10/27 07:30:35;;;;;;;;;;;;;;;18.45;60.54;97825.03;4153365;28;5759;-65
2022/10/27 07:32:38;;;;;;;;;;;;;;;18.46;60.43;97835.53;4161710;28;5818;-65
2022/10/27 07:34:42;;;;;;;;;;;;;;;18.47;60.34;97831.00;4159452;28;5849;-65
2022/10/27 07:36:45;;;;;;;;;;;;;;;18.49;60.39;97824.38;4160701;28;5755;-65
2022/10/27 07:38:48;;;;;;;;;;;;;;;18.51;60.21;97827.66;4158724;28;5973;-66
2022/10/27 07:40:50;;;;;;;;;;;;;;;18.52;60.32;97833.84;4158250;28;5742;-66
2022/10/27 07:42:55;;;;;;;;;;;;;;;18.52;60.31;97833.84;4150550;28;5760;-65
2022/10/27 07:44:58;;;;;;;;;;;;;;;18.54;60.44;97847.81;4149401;28;5751;-64
2022/10/27 07:47:02;;;;;;;;;;;;;;;18.53;60.13;97847.00;4156680;28;5762;-65
2022/10/27 07:49:05;;;;;;;;;;;;;;;18.55;60.32;97847.59;4167531;28;5743;-64
2022/10/27 07:51:08;;;;;;;;;;;;;;;18.57;60.30;97847.38;4164442;28;5817;-65
2022/10/27 07:53:11;;;;;;;;;;;;;;;18.58;60.08;97849.84;4166187;28;5741;-67
2022/10/27 07:55:15;;;;;;;;;;;;;;;18.59;60.13;97853.34;4166729;28;5742;-66
2022/10/27 07:57:18;;;;;;;;;;;;;;;18.60;60.44;97853.13;4166022;28;5735;-66
2022/10/27 07:59:21;;;;;;;;;;;;;;;18.61;60.37;97854.78;4158263;28;5840;-65
2022/10/27 08:01:24;;;;;;;;;;;;;;;18.63;59.91;97858.03;4154995;28;5755;-66
2022/10/27 08:03:30;;;;;;;;;;;;;;;18.64;60.15;97853.53;4156741;28;5805;-65
2022/10/27 08:05:34;;;;;;;;;;;;;;;18.63;60.33;97844.66;4154453;28;5896;-65
2022/10/27 08:07:37;;;;;;;;;;;;;;;18.68;60.35;97838.66;4158155;28;5715;-65
2022/10/27 08:09:44;;;;;;;;;;;;;;;18.70;60.42;97841.16;4160899;28;5746;-65
2022/10/27 08:11:47;;;;;;;;;;;;;;;18.71;60.49;97845.47;4159433;28;5123;-65
2022/10/27 08:13:51;;;;;;;;;;;;;;;18.71;60.37;97853.50;4159502;28;5724;-65
2022/10/27 08:15:56;;;;;;;;;;;;;;;18.74;60.69;97861.09;4164208;28;5754;-66
2022/10/27 08:18:01;;;;;;;;;;;;;;;18.74;60.49;97858.41;4166859;28;5727;-66
2022/10/27 08:20:07;;;;;;;;;;;;;;;18.77;60.69;97852.59;4166778;28;5742;-66
2022/10/27 08:22:10;;;;;;;;;;;;;;;18.79;60.54;97853.19;4166330;28;5731;-66
2022/10/27 08:24:16;;;;;;;;;;;;;;;18.81;60.85;97856.50;4166390;28;5718;-66
2022/10/27 08:26:18;;;;;;;;;;;;;;;18.80;61.03;97852.16;4168891;28;5834;-64
2022/10/27 08:28:23;;;;;;;;;;;;;;;18.80;61.09;97844.13;4169853;28;5734;-66
2022/10/27 08:30:29;;;;;;;;;;;;;;;18.80;60.93;97849.47;4169934;28;5814;-66
2022/10/27 08:32:36;;;;;;;;;;;;;;;18.82;60.97;97853.59;4156817;28;5898;-67
2022/10/27 08:34:39;;;;;;;;;;;;;;;18.83;60.80;97863.28;4163126;28;5741;-64
2022/10/27 08:36:43;;;;;;;;;;;;;;;18.84;61.14;97861.41;4169659;28;5747;-64
2022/10/27 08:38:46;;;;;;;;;;;;;;;18.84;61.17;97856.06;4169454;28;5750;-65
2022/10/27 08:41:03;;;;;;;;;;;;;;;18.85;61.02;97863.88;4169267;28;5817;-65
2022/10/27 08:43:31;;;;;;;;;;;;;;;18.87;61.09;97869.00;4169393;28;5731;-65
2022/10/27 08:45:44;;;;;;;;;;;;;;;18.87;61.49;97871.69;4161457;28;5731;-66
2022/10/27 08:47:47;;;;;;;;;;;;;;;18.87;61.38;97874.38;4169489;28;5731;-66
2022/10/27 08:49:56;;;;;;;;;;;;;;;18.88;61.38;97879.50;4169448;28;5743;-67
2022/10/27 08:52:06;;;;;;;;;;;;;;;18.88;61.53;97879.50;4163391;28;6555;-67
2022/10/27 08:54:11;;;;;;;;;;;;;;;18.89;61.56;97877.63;4168200;28;5731;-68
2022/10/27 08:56:16;;;;;;;;;;;;;;;18.90;61.51;97873.91;4169036;28;5743;-67
2022/10/27 08:58:31;;;;;;;;;;;;;;;18.90;61.77;97884.63;4153300;28;5898;-67
2022/10/27 09:00:44;;;;;;;;;;;;;;;18.93;61.60;97886.91;4169259;28;5738;-65
2022/10/27 09:03:06;;;;;;;;;;;;;;;18.94;61.52;97877.81;4169310;28;5743;-66
2022/10/27 09:05:34;;;;;;;;;;;;;;;18.94;61.85;97877.81;4169455;28;5833;-66
2022/10/27 09:07:46;;;;;;;;;;;;;;;18.94;61.81;97877.81;4169015;28;5745;-66
2022/10/27 09:09:54;;;;;;;;;;;;;;;18.94;61.82;97877.00;4165243;28;5786;-68
2022/10/27 09:12:09;;;;;;;;;;;;;;;18.95;61.79;97875.94;4168515;28;5739;-68
2022/10/27 09:14:28;;;;;;;;;;;;;;;18.95;61.61;97884.81;4169202;28;5821;-66
2022/10/27 09:16:37;;;;;;;;;;;;;;;18.96;62.06;97881.09;4162833;28;5851;-72
2022/10/27 09:18:44;;;;;;;;;;;;;;;18.98;61.77;97876.31;4169170;28;5935;-72
2022/10/27 09:20:51;;;;;;;;;;;;;;;18.99;61.99;97877.16;4169083;28;5825;-71
2022/10/27 09:23:01;;;;;;;;;;;;;;;19.00;61.99;97876.09;4169116;28;5849;-70
2022/10/27 09:25:17;;;;;;;;;;;;;;;19.01;62.02;97883.91;4168754;28;5751;-72
2022/10/27 09:27:21;;;;;;;;;;;;;;;19.02;61.91;97882.88;4168977;28;5739;-71
2022/10/27 09:29:24;;;;;;;;;;;;;;;19.03;62.13;97879.19;4167883;28;5928;-70
2022/10/27 09:31:36;;;;;;;;;;;;;;;19.05;61.92;97885.13;4161708;28;5734;-72
2022/10/27 09:33:53;;;;;;;;;;;;;;;19.04;61.79;97885.34;4168910;28;5849;-72
2022/10/27 09:35:56;;;;;;;;;;;;;;;19.04;62.03;97880.00;4168932;28;5742;-73
2022/10/27 09:38:00;;;;;;;;;;;;;;;19.04;61.63;97888.84;4168946;28;5077;-72
2022/10/27 09:40:03;;;;;;;;;;;;;;;19.03;61.99;97873.81;4168742;28;5742;-68
2022/10/27 09:42:06;;;;;;;;;;;;;;;19.01;61.88;97881.22;4168577;28;5742;-70
2022/10/27 09:44:18;;;;;;;;;;;;;;;19.01;61.83;97878.56;4168762;28;5723;-73
2022/10/27 09:46:23;;;;;;;;;;;;;;;19.04;61.78;97877.31;4168611;28;5797;-70
2022/10/27 09:48:27;;;;;;;;;;;;;;;19.05;61.78;97865.56;4168645;28;5738;-73
2022/10/27 09:50:35;;;;;;;;;;;;;;;19.07;61.72;97874.19;4168779;28;5789;-74
2022/10/27 09:52:43;;;;;;;;;;;;;;;19.07;61.88;97872.31;4168381;28;5813;-73
2022/10/27 09:54:53;;;;;;;;;;;;;;;19.09;61.98;97880.97;4168445;28;5817;-71
2022/10/27 09:57:04;;;;;;;;;;;;;;;19.07;62.17;97880.38;4168455;28;5723;-73
2022/10/27 09:59:07;;;;;;;;;;;;;;;19.08;62.34;97882.00;4168428;28;5750;-73
2022/10/27 10:01:11;;;;;;;;;;;;;;;19.08;62.17;97875.81;4168521;28;5730;-74
2022/10/27 10:03:19;;;;;;;;;;;;;;;19.10;62.26;97882.59;4168233;28;5737;-69
2022/10/27 10:05:25;;;;;;;;;;;;;;;19.11;62.27;97876.19;4152967;28;5846;-69
2022/10/27 10:07:32;;;;;;;;;;;;;;;19.13;62.31;97878.66;4167011;28;5739;-73
2022/10/27 10:09:38;;;;;;;;;;;;;;;19.13;62.24;97879.47;4166821;28;5723;-68
2022/10/27 10:11:42;;;;;;;;;;;;;;;19.10;62.17;97874.56;4161168;28;5814;-68
2022/10/27 10:13:57;;;;;;;;;;;;;;;19.12;62.12;97883.19;4149429;28;5759;-67
2022/10/27 10:16:09;;;;;;;;;;;;;;;19.14;62.30;97877.59;4151702;28;5898;-72
2022/10/27 10:18:24;;;;;;;;;;;;;;;19.15;62.39;97888.13;4151932;28;6264;-69
2022/10/27 10:20:33;;;;;;;;;;;;;;;19.14;62.35;97885.66;4151907;28;5834;-69
2022/10/27 10:22:36;;;;;;;;;;;;;;;19.14;62.46;97885.66;4151115;28;5850;-67
2022/10/27 10:24:46;;;;;;;;;;;;;;;19.13;62.36;97879.47;4150225;28;5811;-72
2022/10/27 10:26:53;;;;;;;;;;;;;;;19.14;62.63;97881.13;4156234;28;5916;-69
2022/10/27 10:29:07;;;;;;;;;;;;;;;19.16;62.33;97883.59;4168167;28;5859;-73
2022/10/27 10:31:12;;;;;;;;;;;;;;;19.16;62.73;97881.72;4168075;28;5829;-68
2022/10/27 10:33:17;;;;;;;;;;;;;;;19.18;62.54;97885.00;4167576;28;5759;-73
2022/10/27 10:35:42;;;;;;;;;;;;;;;19.19;62.61;97886.63;4167142;28;5838;-71
2022/10/27 10:37:45;;;;;;;;;;;;;;;19.18;62.52;97878.81;4163562;28;5759;-67
2022/10/27 10:39:48;;;;;;;;;;;;;;;19.19;62.59;97878.59;4167602;28;5810;-69
2022/10/27 10:44:21;;;;;;;;;;;;;;;19.18;62.50;97882.31;4231946;27;8084;-69
2022/10/27 10:46:25;;;;;;;;;;;;;;;19.19;62.75;97878.59;4232112;28;5817;-69
2022/10/27 10:48:37;;;;;;;;;;;;;;;19.18;62.62;97871.59;4231855;28;5687;-71
2022/10/27 10:50:47;;;;;;;;;;;;;;;19.20;62.73;97866.84;4232032;28;5741;-68
2022/10/27 10:52:53;;;;;;;;;;;;;;;19.22;62.68;97876.50;4231735;28;5680;-67
2022/10/27 10:54:56;;;;;;;;;;;;;;;19.24;62.92;97874.41;4231755;28;5801;-70
2022/10/27 10:56:59;;;;;;;;;;;;;;;19.25;62.60;97870.69;4231823;28;5679;-71
2022/10/27 10:59:13;;;;;;;;;;;;;;;19.25;62.56;97865.34;4232064;28;5780;-71
2022/10/27 11:01:17;;;;;;;;;;;;;;;19.28;62.60;97870.28;4231564;28;5676;-71
2022/10/27 11:03:21;;;;;;;;;;;;;;;19.27;62.73;97868.63;4223383;28;5672;-68
2022/10/27 11:05:29;;;;;;;;;;;;;;;19.23;62.83;97870.91;4231671;28;5731;-68